Flight Track Log - Related Links

Times and Time Zones

All times are in EDT time to prevent confusion due to time zone crossing. See the SWA2975 flight status page for this flight to view local times or setup timezone preferences in your user account.

Time Position Orientation Groundspeed Altitude Reporting Facility
EDT Latitude Longitude Course Direction KTS MPH feet Rate Location/Type
Wed 04:55:34 PM 39.8640 -104.6820 255° West 17 20  Level FlightAware ADS-B
Wed 04:55:51 PM 39.8640 -104.6840 270° West 18 21 580 Level FlightAware ADS-B
Wed 04:55:57 PM 39.8630 -104.6840 180° South 17 20 597 Level FlightAware ADS-B
Wed 04:56:29 PM 39.8610 -104.6840 180° South 16 18 603 Level FlightAware ADS-B
Wed 04:56:45 PM 39.8590 -104.6840 180° South 15 17 639 Level FlightAware ADS-B
Wed 04:57:11 PM 39.8580 -104.6840 180° South 15 17 658 Level FlightAware ADS-B
Wed 04:57:40 PM 39.8560 -104.6840 180° South 15 17 692 Level FlightAware ADS-B
Wed 04:58:06 PM 39.8540 -104.6840 180° South 17 20 734 Level FlightAware ADS-B
Wed 04:58:39 PM 39.8510 -104.6840 180° South 23 26 777 Level FlightAware ADS-B
Wed 04:59:06 PM 39.8480 -104.6840 180° South 16 18 839 Level FlightAware ADS-B
Wed 04:59:40 PM 39.8440 -104.6840 180° South 31 36 897 Level FlightAware ADS-B
Wed 05:02:00 PM 39.8808 -104.9998 276° West  Level FlightAware Approximate
Wed 05:03:00 PM 39.8913 -105.1359 276° West  Level FlightAware Approximate
Wed 05:04:00 PM 39.9000 -105.2721 270° West  Level FlightAware Approximate
Wed 05:05:00 PM 39.9138 -105.4076 278° West  Level FlightAware Approximate
Wed 05:05:34 PM 39.8410 -104.7280 278° West 182 209 5,800  Level FlightAware ADS-B
Wed 05:05:50 PM 39.8440 -104.7440 284° West 184 212 6,600 1,636 Climbing FlightAware ADS-B
Wed 05:06:18 PM 39.8580 -104.7750 300° West 233 268 7,000 1,821 Climbing FlightAware ADS-B
Wed 05:06:46 PM 39.8740 -104.8120 299° West 246 283 8,300 2,885 Climbing FlightAware ADS-B
Wed 05:07:10 PM 39.8870 -104.8440 298° West 256 295 9,500 2,250 Climbing FlightAware ADS-B
Wed 05:07:26 PM 39.8960 -104.8660 298° West 278 320 9,800 391 Climbing FlightAware ADS-B
Wed 05:07:56 PM 39.9180 -104.9150 300° West 344 396 9,800 1,371 Level FlightAware ADS-B
Wed 05:08:36 PM 39.9380 -104.9990 287° West 367 422 11,400 3,000 Climbing FlightAware ADS-B
Wed 05:09:18 PM 39.9430 -105.0910 274° West 362 417 13,900 3,500 Climbing FlightAware ADS-B
Wed 05:10:00 PM 39.9480 -105.1810 274° West 357 411 16,300 3,308 Climbing FlightAware ADS-B
Wed 05:10:36 PM 39.9520 -105.2600 274° West 356 410 18,200 2,514 Climbing FlightAware ADS-B
Wed 05:11:45 PM 39.9600 -105.4070 274° West 376 433 20,700 2,236 Climbing FlightAware ADS-B
Wed 05:12:26 PM 39.9650 -105.5050 274° West 384 442 22,300 2,195 Climbing FlightAware ADS-B
Wed 05:13:07 PM 39.9700 -105.5970 274° West 389 448 23,700 1,953 Climbing FlightAware ADS-B
Wed 05:13:52 PM 39.9760 -105.7060 274° West 398 458 25,100 1,835 Climbing FlightAware ADS-B
Wed 05:14:32 PM 39.9810 -105.8040 274° West 405 466 26,300 1,509 Climbing FlightAware ADS-B
Wed 05:16:31 PM 39.9950 -106.0990 274° West 432 497 29,100 1,573 Climbing FlightAware ADS-B
Wed 05:17:16 PM 40.0000 -106.2170 273° West 429 494 30,600 1,753 Climbing FlightAware ADS-B
Wed 05:18:00 PM 40.0060 -106.3320 274° West 432 497 31,700 1,756 Climbing FlightAware ADS-B
Wed 05:18:38 PM 40.0100 -106.4310 273° West 426 490 33,000 2,071 Climbing FlightAware ADS-B
Wed 05:19:24 PM 40.0150 -106.5460 273° West 413 475 34,600 1,884 Climbing FlightAware ADS-B
Wed 05:20:04 PM 40.0200 -106.6450 274° West 405 466 35,700 1,357 Climbing FlightAware ADS-B
Wed 05:20:48 PM 40.0240 -106.7480 273° West 405 466 36,500 1,054 Climbing FlightAware ADS-B
Wed 05:21:18 PM 40.0270 -106.8220 273° West 408 470 37,000 1,026 Climbing FlightAware ADS-B
Wed 05:22:04 PM 40.0320 -106.9350 273° West 407 468 37,800 698 Climbing FlightAware ADS-B
Wed 05:22:44 PM 40.0360 -107.0300 273° West 408 470 38,000 158 Climbing FlightAware ADS-B
Wed 05:23:20 PM 40.0390 -107.1190 273° West 404 465 38,000  Level FlightAware ADS-B
Wed 05:23:58 PM 40.0420 -107.2110 272° West 400 460 38,000  Level FlightAware ADS-B
Wed 05:24:40 PM 40.0460 -107.3120 273° West 394 453 38,000  Level FlightAware ADS-B
Wed 05:25:23 PM 40.0500 -107.4140 273° West 389 448 38,000  Level FlightAware ADS-B
Wed 05:26:09 PM 40.0540 -107.5230 273° West 383 441 38,000  Level FlightAware ADS-B
Wed 05:26:53 PM 40.0580 -107.6230 273° West 376 433 38,000  Level FlightAware ADS-B
Wed 05:27:33 PM 40.0610 -107.7130 273° West 371 427 38,000  Level FlightAware ADS-B
Wed 05:28:09 PM 40.0630 -107.7920 272° West 372 428 38,000  Level FlightAware ADS-B
Wed 05:28:49 PM 40.0660 -107.8840 272° West 378 435 38,000  Level FlightAware ADS-B
Wed 05:29:33 PM 40.0700 -107.9860 273° West 395 455 38,000  Level FlightAware ADS-B
Wed 05:30:09 PM 40.0740 -108.0720 274° West 407 468 38,000  Level FlightAware ADS-B
Wed 05:30:49 PM 40.0790 -108.1730 274° West 416 479 38,000  Level FlightAware ADS-B
Wed 05:31:29 PM 40.0830 -108.2730 273° West 420 483 38,000  Level FlightAware ADS-B
Wed 05:32:11 PM 40.0880 -108.3780 274° West 420 483 38,000  Level FlightAware ADS-B
Wed 05:32:55 PM 40.0920 -108.4900 273° West 418 481 38,000  Level FlightAware ADS-B
Wed 05:33:39 PM 40.0970 -108.6020 273° West 415 478 38,000  Level FlightAware ADS-B
Wed 05:34:18 PM 40.1010 -108.7000 273° West 412 474 38,000  Level FlightAware ADS-B
Wed 05:34:59 PM 40.1050 -108.8010 273° West 411 473 38,000  Level FlightAware ADS-B
Wed 05:35:36 PM 40.1090 -108.8930 273° West 411 473 38,000  Level FlightAware ADS-B
Wed 05:36:17 PM 40.1120 -108.9930 272° West 412 474 38,000  Level FlightAware ADS-B
Wed 05:37:02 PM 40.1160 -109.1060 273° West 412 474 38,000  Level FlightAware ADS-B
Wed 05:37:35 PM 40.1190 -109.1870 273° West 413 475 38,000 -156 Level FlightAware ADS-B
Wed 05:38:19 PM 40.1230 -109.2960 273° West 409 471 37,800 -643 Descending FlightAware ADS-B
Wed 05:38:59 PM 40.1260 -109.3940 272° West 402 463 37,100 -963 Descending FlightAware ADS-B
Wed 05:39:40 PM 40.1300 -109.4930 273° West 411 473 36,500 -857 Descending FlightAware ADS-B
Wed 05:40:23 PM 40.1330 -109.6030 272° West 419 482 35,900 -918 Descending FlightAware ADS-B
Wed 05:41:05 PM 40.1370 -109.7100 273° West 428 493 35,200 -940 Descending FlightAware ADS-B
Wed 05:41:46 PM 40.1400 -109.8110 272° West 434 499 34,600 -923 Descending FlightAware ADS-B
Wed 05:42:23 PM 40.1430 -109.9130 272° West 432 497 34,000 -935 Descending FlightAware ADS-B
Wed 05:43:03 PM 40.1460 -110.0150 272° West 425 489 33,400 -1,000 Descending FlightAware ADS-B
Wed 05:44:17 PM 40.1490 -110.1950 271° West 419 482 32,100 -1,009 Descending FlightAware ADS-B
Wed 05:44:56 PM 40.1480 -110.2890 269° West 423 487 31,500 -900 Descending FlightAware ADS-B
Wed 05:46:17 PM 40.1460 -110.4960 269° West 430 495 30,300 -1,329 Descending FlightAware ADS-B
Wed 05:47:16 PM 40.1440 -110.6540 269° West 405 466 28,400 -1,440 Descending FlightAware ADS-B
Wed 05:47:57 PM 40.1430 -110.7230 269° West 399 459 27,900 -2,071 Descending FlightAware ADS-B
Wed 05:48:40 PM 40.1420 -110.8510 269° West 380 437 25,500 -1,814 Descending FlightAware ADS-B
Wed 05:49:23 PM 40.1400 -110.9400 268° West 378 435 25,300 -132 Descending FlightAware ADS-B
Wed 05:50:11 PM 40.1370 -111.0330 268° West 378 435 25,300  Level FlightAware ADS-B
Wed 05:50:47 PM 40.1350 -111.1030 268° West 378 435 25,300  Level FlightAware ADS-B
Wed 05:51:48 PM 40.1320 -111.2220 268° West 378 435 25,300  Level FlightAware ADS-B
Wed 05:52:24 PM 40.1300 -111.2920 268° West 378 435 25,300 -2,820 Level FlightAware ADS-B
Wed 05:55:08 PM 40.1660 -111.6430 278° West 331 381 15,900 -2,738 Descending FlightAware ADS-B
Wed 05:55:50 PM 40.2030 -111.7140 304° West 333 383 15,900 -379 Level FlightAware ADS-B
Wed 05:56:43 PM 40.2580 -111.7880 314° West 322 371 15,300 -990 Descending FlightAware ADS-B
Wed 05:57:27 PM 40.3050 -111.8460 317° Northwest 313 360 14,300 -886 Descending FlightAware ADS-B
Wed 05:58:11 PM 40.3510 -111.8920 323° Northwest 280 322 14,000 -706 Descending FlightAware ADS-B
Wed 05:58:52 PM 40.3980 -111.9290 329° Northwest 265 305 13,300 -1,385 Descending FlightAware ADS-B
Wed 05:59:29 PM 40.4420 -111.9350 354° North 266 306 12,200 -1,255 Descending FlightAware ADS-B
Wed 06:00:42 PM 40.5070 -111.9420 355° North 242 278 11,000 -1,221 Descending FlightAware ADS-B
Wed 06:01:22 PM 40.5630 -111.9490 355° North 233 268 9,900 -1,574 Descending FlightAware ADS-B
Wed 06:01:43 PM 40.5890 -111.9520 355° North 219 252 9,400 -1,200 Descending FlightAware ADS-B
Wed 06:02:07 PM 40.6120 -111.9540 356° North 207 238 9,000 -1,345 Descending FlightAware ADS-B
Wed 06:02:41 PM 40.6440 -111.9580 355° North 196 226 8,100 -1,645 Descending FlightAware ADS-B
Wed 06:03:09 PM 40.6690 -111.9610 355° North 192 221 7,300 -1,821 Descending FlightAware ADS-B
Wed 06:03:37 PM 40.6920 -111.9640 354° North 181 208 6,400 -2,036 Descending FlightAware ADS-B
Wed 06:04:05 PM 40.7160 -111.9660 356° North 181 208 5,400 -1,636 Descending FlightAware ADS-B
Wed 06:04:32 PM 40.7370 -111.9690 354° North 161 185 4,900 -964 Descending FlightAware ADS-B
Wed 06:05:01 PM 40.7590 -111.9710 356° North 159 183 4,500 -800 Descending FlightAware ADS-B
Wed 06:05:17 PM 40.7690 -111.9720 356° North 152 175 4,300 -750 Descending FlightAware ADS-B
Wed 06:13:00 PM 40.7833 -111.9667 North  Level FlightAware Approximate

Login

Don't have an account? Register now (free) for customized features, flight alerts, and more!